createdAt,value
2023-01-27T00:01:17.602Z,96.13
2023-01-27T00:03:51.748Z,95.45
2023-01-27T00:06:24.636Z,95.82
2023-01-27T00:08:57.440Z,95.93
2023-01-27T00:11:47.647Z,97.40
2023-01-27T00:14:21.787Z,95.48
2023-01-27T00:16:54.581Z,94.93
2023-01-27T00:19:27.520Z,94.99
2023-01-27T00:22:18.001Z,94.97
2023-01-27T00:24:50.910Z,95.88
2023-01-27T00:27:23.973Z,95.86
2023-01-27T00:29:58.162Z,96.55
2023-01-27T00:32:51.159Z,95.66
2023-01-27T00:35:25.461Z,96.37
2023-01-27T00:37:58.869Z,96.61
2023-01-27T00:40:31.644Z,94.65
2023-01-27T00:43:05.252Z,97.03
2023-01-27T00:45:52.499Z,96.14
2023-01-27T00:48:25.272Z,96.53
2023-01-27T00:50:58.161Z,96.47
2023-01-27T00:53:31.599Z,97.10
2023-01-27T00:56:05.069Z,97.08
2023-01-27T00:58:38.439Z,97.20
2023-01-27T01:01:15.908Z,95.44
2023-01-27T01:03:49.037Z,96.66
2023-01-27T01:06:22.106Z,96.89
2023-01-27T01:08:57.948Z,95.97
2023-01-27T01:11:30.755Z,96.73
2023-01-27T01:14:03.579Z,97.31
2023-01-27T01:16:37.762Z,96.63
2023-01-27T01:19:10.551Z,96.86
2023-01-27T01:21:43.393Z,96.75
2023-01-27T01:24:16.261Z,95.66
2023-01-27T01:26:49.045Z,95.95
2023-01-27T01:29:21.861Z,96.45
2023-01-27T01:31:56.007Z,94.95
2023-01-27T01:34:28.964Z,95.83
2023-01-27T01:37:01.690Z,95.51
2023-01-27T01:39:34.598Z,95.60
2023-01-27T01:42:07.384Z,96.34
2023-01-27T01:44:45.025Z,96.11
2023-01-27T01:47:20.282Z,96.45
2023-01-27T01:49:53.178Z,97.48
2023-01-27T01:52:25.979Z,97.02
2023-01-27T01:54:58.846Z,96.96
2023-01-27T01:57:37.439Z,97.70
2023-01-27T02:00:12.358Z,97.88
2023-01-27T02:02:52.398Z,99.26
2023-01-27T02:05:29.071Z,99.02
2023-01-27T02:08:06.232Z,98.59
2023-01-27T02:10:39.198Z,99.35
2023-01-27T02:13:13.447Z,97.93
2023-01-27T02:15:46.841Z,100.00
2023-01-27T02:18:21.718Z,100.00
2023-01-27T02:20:55.640Z,100.00
2023-01-27T02:23:54.710Z,100.00
2023-01-27T02:26:34.453Z,100.00
2023-01-27T02:29:10.647Z,100.00
2023-01-27T02:31:44.048Z,100.00
2023-01-27T02:34:22.882Z,100.00
2023-01-27T02:36:58.418Z,100.00
2023-01-27T02:39:35.453Z,100.00
2023-01-27T02:42:13.262Z,100.00
2023-01-27T02:44:46.087Z,100.00
2023-01-27T02:47:19.586Z,100.00
2023-01-27T02:49:54.226Z,100.00
2023-01-27T02:52:28.083Z,100.00
2023-01-27T02:55:00.823Z,100.00
2023-01-27T02:57:34.998Z,100.00
2023-01-27T03:00:27.854Z,100.00
2023-01-27T03:03:00.686Z,100.00
2023-01-27T03:05:33.646Z,100.00
2023-01-27T03:08:06.582Z,100.00
2023-01-27T03:10:39.647Z,100.00
2023-01-27T03:13:13.792Z,100.00
2023-01-27T03:16:04.432Z,100.00
2023-01-27T03:18:37.566Z,100.00
2023-01-27T03:21:10.366Z,100.00
2023-01-27T03:23:45.592Z,100.00
2023-01-27T03:26:20.043Z,100.00
2023-01-27T03:29:12.439Z,100.00
2023-01-27T03:31:48.211Z,100.00
2023-01-27T03:34:25.165Z,100.00
2023-01-27T03:37:19.662Z,100.00
2023-01-27T03:40:09.804Z,100.00
2023-01-27T03:43:00.001Z,100.00
2023-01-27T03:45:51.666Z,100.00
2023-01-27T03:48:24.638Z,100.00
2023-01-27T03:50:58.620Z,100.00
2023-01-27T03:53:31.679Z,100.00
2023-01-27T03:56:05.791Z,100.00
2023-01-27T03:58:38.728Z,100.00
2023-01-27T04:01:17.472Z,100.00
2023-01-27T04:04:08.718Z,100.00
2023-01-27T04:07:00.760Z,100.00
2023-01-27T04:09:35.244Z,100.00
2023-01-27T04:12:07.818Z,100.00
2023-01-27T04:14:41.975Z,100.00
2023-01-27T04:17:18.134Z,100.00
2023-01-27T04:19:50.881Z,100.00
2023-01-27T04:22:23.619Z,100.00
2023-01-27T04:24:56.383Z,100.00
2023-01-27T04:27:29.118Z,100.00
2023-01-27T04:30:01.903Z,100.00
2023-01-27T04:32:36.347Z,100.00
2023-01-27T04:35:09.602Z,100.00
2023-01-27T04:37:42.533Z,100.00
2023-01-27T04:40:15.811Z,100.00
2023-01-27T04:42:48.804Z,100.00
2023-01-27T04:45:21.599Z,100.00
2023-01-27T04:47:55.715Z,100.00
2023-01-27T04:50:28.601Z,100.00
2023-01-27T04:53:01.544Z,100.00
2023-01-27T04:55:34.374Z,100.00
2023-01-27T04:58:07.175Z,100.00
2023-01-27T05:00:39.988Z,100.00
2023-01-27T05:03:14.212Z,100.00
2023-01-27T05:05:47.118Z,100.00
2023-01-27T05:08:20.010Z,100.00
2023-01-27T05:10:52.975Z,100.00
2023-01-27T05:13:25.749Z,100.00
2023-01-27T05:16:06.280Z,100.00
2023-01-27T05:18:41.910Z,100.00
2023-01-27T05:21:17.169Z,100.00
2023-01-27T05:23:50.664Z,100.00
2023-01-27T05:26:25.539Z,100.00
2023-01-27T05:28:59.311Z,100.00
2023-01-27T05:31:32.523Z,100.00
2023-01-27T05:34:06.945Z,100.00
2023-01-27T05:36:39.844Z,100.00
2023-01-27T05:39:12.826Z,100.00
2023-01-27T05:41:45.611Z,100.00
2023-01-27T05:44:18.329Z,100.00
2023-01-27T05:46:51.172Z,100.00
2023-01-27T05:49:25.318Z,100.00
2023-01-27T05:51:58.681Z,100.00
2023-01-27T05:54:31.497Z,100.00
2023-01-27T05:57:04.332Z,100.00
2023-01-27T05:59:37.075Z,100.00
2023-01-27T06:02:09.919Z,100.00
2023-01-27T06:04:44.228Z,100.00
2023-01-27T06:07:16.987Z,100.00
2023-01-27T06:09:50.332Z,100.00
2023-01-27T06:12:23.090Z,100.00
2023-01-27T06:14:57.933Z,100.00
2023-01-27T06:17:30.690Z,100.00
2023-01-27T06:20:05.663Z,100.00
2023-01-27T06:22:38.335Z,100.00
2023-01-27T06:25:13.539Z,100.00
2023-01-27T06:27:46.476Z,100.00
2023-01-27T06:30:19.451Z,100.00
2023-01-27T06:32:52.168Z,100.00
2023-01-27T06:35:26.304Z,100.00
2023-01-27T06:38:00.139Z,100.00
2023-01-27T06:40:34.113Z,100.00
2023-01-27T06:43:12.447Z,100.00
2023-01-27T06:45:45.204Z,100.00
2023-01-27T06:48:18.095Z,100.00
2023-01-27T06:50:53.273Z,100.00
2023-01-27T06:53:26.725Z,100.00
2023-01-27T06:56:01.340Z,100.00
2023-01-27T06:58:34.168Z,100.00
2023-01-27T07:01:07.609Z,100.00
2023-01-27T07:03:43.518Z,100.00
2023-01-27T07:06:20.197Z,100.00
2023-01-27T07:08:54.759Z,100.00
2023-01-27T07:11:28.405Z,100.00
2023-01-27T07:14:01.209Z,100.00
2023-01-27T07:16:34.034Z,100.00
2023-01-27T07:19:07.370Z,100.00
2023-01-27T07:21:41.613Z,100.00
2023-01-27T07:24:14.524Z,100.00
2023-01-27T07:26:48.351Z,100.00
2023-01-27T07:29:21.112Z,100.00
2023-01-27T07:31:54.173Z,100.00
2023-01-27T07:34:27.029Z,100.00
2023-01-27T07:37:01.598Z,100.00
2023-01-27T07:39:35.065Z,100.00
2023-01-27T07:42:08.270Z,100.00
2023-01-27T07:44:42.777Z,100.00
2023-01-27T07:47:15.631Z,100.00
2023-01-27T07:49:48.459Z,100.00
2023-01-27T07:52:22.595Z,100.00
2023-01-27T07:54:55.424Z,100.00
2023-01-27T07:57:28.288Z,100.00
2023-01-27T08:00:01.289Z,100.00
2023-01-27T08:02:34.024Z,100.00
2023-01-27T08:05:07.265Z,100.00
2023-01-27T08:07:41.473Z,100.00
2023-01-27T08:10:14.712Z,100.00
2023-01-27T08:12:48.731Z,100.00
2023-01-27T08:15:21.614Z,100.00
2023-01-27T08:17:55.531Z,100.00
2023-01-27T08:20:28.820Z,100.00
2023-01-27T08:23:02.972Z,100.00
2023-01-27T08:25:35.744Z,100.00
2023-01-27T08:28:08.493Z,100.00
2023-01-27T08:30:41.234Z,100.00
2023-01-27T08:33:14.558Z,100.00
2023-01-27T08:35:47.995Z,100.00
2023-01-27T08:38:22.306Z,100.00
2023-01-27T08:40:55.113Z,100.00
2023-01-27T08:43:27.921Z,100.00
2023-01-27T08:46:01.298Z,100.00
2023-01-27T08:48:35.424Z,100.00
2023-01-27T08:51:10.226Z,100.00
2023-01-27T08:53:44.328Z,100.00
2023-01-27T08:56:17.250Z,100.00
2023-01-27T08:58:52.173Z,100.00
2023-01-27T09:01:25.424Z,100.00
2023-01-27T09:03:58.296Z,100.00
2023-01-27T09:06:31.072Z,100.00
2023-01-27T09:09:12.124Z,100.00
2023-01-27T09:11:47.200Z,100.00
2023-01-27T09:14:20.950Z,100.00
2023-01-27T09:16:53.686Z,100.00
2023-01-27T09:19:26.605Z,100.00
2023-01-27T09:21:59.758Z,100.00
2023-01-27T09:24:33.906Z,100.00
2023-01-27T09:27:06.716Z,100.00
2023-01-27T09:29:39.509Z,100.00
2023-01-27T09:32:12.635Z,100.00
2023-01-27T09:34:45.522Z,100.00
2023-01-27T09:37:18.476Z,100.00
2023-01-27T09:39:59.312Z,99.59
2023-01-27T09:43:03.836Z,99.70
2023-01-27T09:45:49.367Z,99.23
2023-01-27T09:48:44.465Z,99.35
2023-01-27T09:51:23.396Z,98.67
2023-01-27T09:54:21.838Z,98.63
2023-01-27T09:57:05.376Z,97.14
2023-01-27T09:59:54.681Z,97.43
2023-01-27T10:03:02.891Z,97.25
2023-01-27T10:05:53.720Z,97.11
2023-01-27T10:08:46.154Z,96.22
2023-01-27T10:11:24.960Z,95.45
2023-01-27T10:14:14.117Z,95.81
2023-01-27T10:17:09.144Z,95.00
2023-01-27T10:19:55.509Z,95.82
2023-01-27T10:22:38.303Z,95.48
2023-01-27T10:25:25.554Z,94.11
2023-01-27T10:27:59.831Z,94.96
2023-01-27T10:30:36.267Z,95.24
2023-01-27T10:33:18.379Z,93.33
2023-01-27T10:35:54.056Z,95.13
2023-01-27T10:38:39.167Z,94.64
2023-01-27T10:41:28.185Z,94.68
2023-01-27T10:44:17.510Z,94.52
2023-01-27T10:46:59.371Z,93.84
2023-01-27T10:49:36.418Z,93.55
2023-01-27T10:52:12.606Z,94.13
2023-01-27T10:54:53.733Z,92.79
2023-01-27T10:57:34.358Z,92.16
2023-01-27T11:00:41.922Z,91.19
2023-01-27T11:03:17.820Z,92.72
2023-01-27T11:05:53.796Z,91.97
2023-01-27T11:08:30.552Z,92.44
2023-01-27T11:11:25.262Z,92.48
2023-01-27T11:14:04.538Z,93.51
2023-01-27T11:16:39.933Z,92.03
2023-01-27T11:19:24.758Z,92.82
2023-01-27T11:22:07.873Z,92.53
2023-01-27T11:24:46.980Z,92.98
2023-01-27T11:27:34.125Z,90.57
2023-01-27T11:30:16.849Z,90.92
2023-01-27T11:33:00.652Z,90.17
2023-01-27T11:35:34.899Z,89.62
2023-01-27T11:38:15.987Z,89.86
2023-01-27T11:40:51.632Z,88.50
2023-01-27T11:43:26.452Z,88.89
2023-01-27T11:46:03.616Z,89.39
2023-01-27T11:48:41.014Z,88.82
2023-01-27T11:51:21.431Z,89.51
2023-01-27T11:54:04.020Z,88.92
2023-01-27T11:56:38.830Z,87.01
2023-01-27T11:59:18.525Z,88.09
2023-01-27T12:01:56.695Z,87.21
2023-01-27T12:04:48.994Z,84.94
2023-01-27T12:07:33.055Z,84.54
2023-01-27T12:10:23.014Z,86.61
2023-01-27T12:12:56.925Z,87.26
2023-01-27T12:15:32.762Z,85.26
2023-01-27T12:18:14.660Z,86.65
2023-01-27T12:20:50.366Z,86.33
2023-01-27T12:23:28.186Z,87.46
2023-01-27T12:26:03.002Z,88.55
2023-01-27T12:28:38.629Z,87.63
2023-01-27T12:31:16.079Z,87.75
2023-01-27T12:33:59.367Z,87.01
2023-01-27T12:36:40.205Z,87.90
2023-01-27T12:39:28.977Z,86.87
2023-01-27T12:42:01.850Z,87.61
2023-01-27T12:44:42.784Z,86.20
2023-01-27T12:47:22.642Z,86.70
2023-01-27T12:50:20.778Z,86.25
2023-01-27T12:52:54.907Z,87.06
2023-01-27T12:55:35.059Z,85.94
2023-01-27T12:58:29.387Z,86.54
2023-01-27T13:01:05.408Z,86.38
2023-01-27T13:03:41.455Z,85.02
2023-01-27T13:06:17.023Z,86.12
2023-01-27T13:08:52.322Z,85.48
2023-01-27T13:11:37.169Z,84.69
2023-01-27T13:14:17.624Z,84.65
2023-01-27T13:16:54.428Z,84.77
2023-01-27T13:19:36.988Z,85.38
2023-01-27T13:22:17.523Z,85.34
2023-01-27T13:24:55.804Z,84.55
2023-01-27T13:27:39.863Z,85.37
2023-01-27T13:30:27.306Z,84.55
2023-01-27T13:33:06.983Z,85.50
2023-01-27T13:35:48.124Z,84.51
2023-01-27T13:38:26.248Z,84.81
2023-01-27T13:41:00.531Z,85.29
2023-01-27T13:43:40.374Z,84.62
2023-01-27T13:46:19.638Z,85.81
2023-01-27T13:48:55.771Z,83.73
2023-01-27T13:51:31.430Z,83.91
2023-01-27T13:54:05.741Z,84.52
2023-01-27T13:56:49.664Z,83.88
2023-01-27T13:59:36.874Z,83.36
2023-01-27T14:02:30.689Z,83.54
2023-01-27T14:05:26.345Z,83.35
2023-01-27T14:08:09.034Z,83.54
2023-01-27T14:10:47.568Z,84.17
2023-01-27T14:13:34.637Z,83.83
2023-01-27T14:16:14.269Z,83.72
2023-01-27T14:18:51.565Z,82.43
2023-01-27T14:21:41.776Z,83.37
2023-01-27T14:24:26.188Z,84.17
2023-01-27T14:27:06.005Z,84.31
2023-01-27T14:29:47.382Z,84.32
2023-01-27T14:32:32.067Z,83.27
2023-01-27T14:35:19.094Z,84.21
2023-01-27T14:37:59.905Z,85.20
2023-01-27T14:40:36.258Z,84.06
2023-01-27T14:43:19.433Z,84.42
2023-01-27T14:45:57.839Z,84.22
2023-01-27T14:48:43.299Z,85.14
2023-01-27T14:51:19.699Z,84.08
2023-01-27T14:54:10.026Z,86.48
2023-01-27T14:56:46.995Z,84.37
2023-01-27T14:59:34.869Z,84.89
2023-01-27T15:02:18.859Z,83.98
2023-01-27T15:04:59.397Z,84.80
2023-01-27T15:07:43.369Z,85.57
2023-01-27T15:10:24.697Z,84.60
2023-01-27T15:13:27.116Z,85.60
2023-01-27T15:16:26.301Z,84.96
2023-01-27T15:19:18.602Z,84.74
2023-01-27T15:22:24.586Z,86.37
2023-01-27T15:25:00.777Z,85.63
2023-01-27T15:27:34.406Z,85.35
2023-01-27T15:30:08.973Z,85.62
2023-01-27T15:32:41.875Z,84.44
2023-01-27T15:35:33.376Z,85.06
2023-01-27T15:38:29.628Z,85.17
2023-01-27T15:41:08.433Z,85.11
2023-01-27T15:44:02.613Z,85.17
2023-01-27T15:46:37.565Z,85.28
2023-01-27T15:49:15.533Z,85.73
2023-01-27T15:51:50.862Z,84.60
2023-01-27T15:54:26.933Z,84.12
2023-01-27T15:57:04.525Z,83.80
2023-01-27T15:59:58.354Z,84.09
2023-01-27T16:02:37.311Z,83.66
2023-01-27T16:05:18.345Z,83.62
2023-01-27T16:07:54.983Z,84.50
2023-01-27T16:10:34.536Z,84.32
2023-01-27T16:13:23.303Z,84.63
2023-01-27T16:16:31.581Z,84.71
2023-01-27T16:19:19.516Z,84.31
2023-01-27T16:21:58.110Z,84.31
2023-01-27T16:24:37.178Z,84.04
2023-01-27T16:27:23.419Z,84.51
2023-01-27T16:29:59.156Z,84.18
2023-01-27T16:32:38.992Z,83.54
2023-01-27T16:35:18.321Z,83.42
2023-01-27T16:38:03.873Z,85.61
2023-01-27T16:40:39.535Z,84.33
2023-01-27T16:43:18.204Z,84.38
2023-01-27T16:45:52.491Z,84.73
2023-01-27T16:48:32.475Z,84.23
2023-01-27T16:51:16.194Z,84.22
2023-01-27T16:53:51.022Z,85.67
2023-01-27T16:56:27.145Z,84.98
2023-01-27T16:59:03.810Z,84.86
2023-01-27T17:01:41.571Z,84.62
2023-01-27T17:04:20.439Z,84.78
2023-01-27T17:06:57.719Z,85.22
2023-01-27T17:09:32.735Z,84.91
2023-01-27T17:12:05.912Z,85.32
2023-01-27T17:14:47.598Z,84.43
2023-01-27T17:17:23.765Z,84.42
2023-01-27T17:20:02.631Z,84.98
2023-01-27T17:22:38.439Z,85.37
2023-01-27T17:25:16.417Z,84.64
2023-01-27T17:27:49.665Z,83.78
2023-01-27T17:30:26.112Z,84.46
2023-01-27T17:33:01.318Z,84.70
2023-01-27T17:35:36.820Z,85.04
2023-01-27T17:38:14.836Z,84.88
2023-01-27T17:40:49.324Z,84.61
2023-01-27T17:43:24.948Z,84.51
2023-01-27T17:46:15.686Z,84.55
2023-01-27T17:48:52.826Z,84.86
2023-01-27T17:51:27.939Z,83.17
2023-01-27T17:54:02.504Z,84.46
2023-01-27T17:56:36.400Z,83.11
2023-01-27T17:59:16.943Z,82.94
2023-01-27T18:01:54.982Z,83.41
2023-01-27T18:04:27.872Z,84.75
2023-01-27T18:07:00.957Z,85.82
2023-01-27T18:09:33.845Z,84.58
2023-01-27T18:12:07.356Z,84.75
2023-01-27T18:14:40.232Z,83.97
2023-01-27T18:17:23.885Z,84.12
2023-01-27T18:19:57.996Z,84.25
2023-01-27T18:22:31.019Z,84.35
2023-01-27T18:25:04.608Z,84.29
2023-01-27T18:27:38.984Z,83.92
2023-01-27T18:30:19.063Z,84.69
2023-01-27T18:33:00.590Z,86.41
2023-01-27T18:35:34.891Z,85.15
2023-01-27T18:38:26.485Z,85.76
2023-01-27T18:41:09.670Z,85.65
2023-01-27T18:43:42.930Z,86.45
2023-01-27T18:46:15.795Z,86.15
2023-01-27T18:48:50.093Z,86.69
2023-01-27T18:51:22.980Z,86.39
2023-01-27T18:53:55.818Z,86.81
2023-01-27T18:56:28.774Z,86.44
2023-01-27T18:59:01.780Z,86.53
2023-01-27T19:01:36.081Z,87.38
2023-01-27T19:04:12.864Z,86.34
2023-01-27T19:06:45.761Z,84.78
2023-01-27T19:09:18.713Z,84.79
2023-01-27T19:11:53.687Z,85.20
2023-01-27T19:14:26.386Z,85.69
2023-01-27T19:16:59.327Z,85.17
2023-01-27T19:19:33.565Z,84.89
2023-01-27T19:22:06.469Z,83.77
2023-01-27T19:24:39.871Z,84.29
2023-01-27T19:27:14.698Z,85.03
2023-01-27T19:29:48.072Z,84.60
2023-01-27T19:32:20.960Z,85.23
2023-01-27T19:34:55.108Z,84.05
2023-01-27T19:37:28.119Z,85.65
2023-01-27T19:40:02.125Z,84.11
2023-01-27T19:42:34.858Z,83.62
2023-01-27T19:45:09.966Z,83.45
2023-01-27T19:47:46.778Z,83.56
2023-01-27T19:50:23.566Z,83.52
2023-01-27T19:52:57.326Z,83.62
2023-01-27T19:55:30.145Z,82.94
2023-01-27T19:58:03.335Z,84.12
2023-01-27T20:00:37.918Z,83.23
2023-01-27T20:03:10.687Z,83.27
2023-01-27T20:05:44.980Z,83.85
2023-01-27T20:08:19.472Z,82.69
2023-01-27T20:10:52.533Z,83.45
2023-01-27T20:13:25.300Z,84.04
2023-01-27T20:15:58.613Z,84.40
2023-01-27T20:18:31.507Z,83.21
2023-01-27T20:21:05.698Z,82.78
2023-01-27T20:23:38.456Z,82.94
2023-01-27T20:26:13.729Z,83.20
2023-01-27T20:28:47.282Z,83.12
2023-01-27T20:31:23.045Z,82.42
2023-01-27T20:33:55.932Z,82.38
2023-01-27T20:36:30.050Z,82.10
2023-01-27T20:39:03.367Z,82.42
2023-01-27T20:41:36.267Z,82.14
2023-01-27T20:44:12.276Z,81.97
2023-01-27T20:46:45.008Z,82.35
2023-01-27T20:49:17.783Z,82.73
2023-01-27T20:51:51.909Z,81.50
2023-01-27T20:54:24.687Z,81.51
2023-01-27T20:56:58.035Z,79.97
2023-01-27T20:59:30.795Z,81.13
2023-01-27T21:02:04.499Z,80.46
2023-01-27T21:04:37.306Z,79.27
2023-01-27T21:07:12.473Z,79.66
2023-01-27T21:09:45.474Z,79.85
2023-01-27T21:12:18.415Z,79.37
2023-01-27T21:14:51.230Z,79.64
2023-01-27T21:17:24.096Z,79.86
2023-01-27T21:19:56.922Z,81.25
2023-01-27T21:22:31.059Z,80.45
2023-01-27T21:25:04.312Z,79.48
2023-01-27T21:27:37.099Z,80.25
2023-01-27T21:30:10.937Z,80.14
2023-01-27T21:32:43.720Z,78.97
2023-01-27T21:35:16.863Z,79.62
2023-01-27T21:37:51.176Z,78.46
2023-01-27T21:40:23.943Z,78.90
2023-01-27T21:43:16.684Z,78.02
2023-01-27T21:45:58.891Z,79.00
2023-01-27T21:48:31.683Z,79.09
2023-01-27T21:51:04.612Z,77.83
2023-01-27T21:53:38.727Z,77.68
2023-01-27T21:56:13.256Z,77.76
2023-01-27T21:58:46.100Z,77.11
2023-01-27T22:01:18.864Z,76.85
2023-01-27T22:03:51.682Z,77.57
2023-01-27T22:06:24.476Z,77.22
2023-01-27T22:08:58.702Z,78.05
2023-01-27T22:11:31.581Z,77.71
2023-01-27T22:14:04.342Z,77.89
2023-01-27T22:16:37.191Z,78.80
2023-01-27T22:19:10.103Z,78.54
2023-01-27T22:21:42.850Z,77.96
2023-01-27T22:24:17.092Z,78.14
2023-01-27T22:26:50.165Z,77.38
2023-01-27T22:29:22.919Z,78.55
2023-01-27T22:31:56.067Z,79.21
2023-01-27T22:34:28.852Z,78.85
2023-01-27T22:37:02.023Z,79.68
2023-01-27T22:39:37.835Z,79.39
2023-01-27T22:42:10.672Z,79.19
2023-01-27T22:44:43.805Z,79.18
2023-01-27T22:47:16.563Z,80.11
2023-01-27T22:49:49.329Z,79.13
2023-01-27T22:52:22.083Z,79.71
2023-01-27T22:54:56.327Z,79.62
2023-01-27T22:57:31.229Z,77.94
2023-01-27T23:00:04.020Z,78.55
2023-01-27T23:02:37.048Z,78.96
2023-01-27T23:05:10.158Z,78.27
2023-01-27T23:07:42.913Z,78.48
2023-01-27T23:10:18.213Z,79.38
2023-01-27T23:12:50.995Z,80.30
2023-01-27T23:15:23.897Z,79.25
2023-01-27T23:17:56.695Z,78.46
2023-01-27T23:20:29.501Z,79.58
2023-01-27T23:23:02.290Z,78.78
2023-01-27T23:25:37.487Z,78.85
2023-01-27T23:28:10.381Z,78.22
2023-01-27T23:30:44.530Z,78.71
2023-01-27T23:33:19.140Z,78.93
2023-01-27T23:35:57.476Z,80.03
2023-01-27T23:38:33.730Z,79.33
2023-01-27T23:41:12.488Z,79.47
2023-01-27T23:43:45.536Z,79.88
2023-01-27T23:46:18.540Z,79.44
2023-01-27T23:48:51.751Z,79.36
2023-01-27T23:51:24.671Z,80.05
2023-01-27T23:53:57.439Z,80.00
2023-01-27T23:56:31.540Z,79.38
2023-01-27T23:59:04.346Z,79.75
